Leominster, Massachusetts
Current Conditions -  °F | °C
As of 1:52 PM on Tuesday 21 Oct 2014 (Local Time) from KFIT Reporting Station
Broken Clouds Broken Clouds  
Wind Chill: 61°   Ceiling: 11000
Heat Index: 61°   Visibility: 10mi
Dew Point: 50°   Wind: 7mph
Humidity: 67%   Direction: 20°NNE
Pressure: 29.93"   Gusts: NA
Location:  42.53°N, 71.76°W
Report Text: KFIT 211752Z AUTO 02006KT 10SM FEW020 BKN110 16/10 A2993 RMK AO2 SLP136 T01610100 10161 20072 58018
Loading
Personal Weather Stations






























Interactive Weather Map
Tropical Storm Tracking
New forecast layout! Learn more

10-Day Weather Forecast

Advertisements
Track Severe Weather on mobile